createdAt,value
2023-05-19T00:00:37.308Z,83.90
2023-05-19T00:03:05.223Z,84.20
2023-05-19T00:05:32.434Z,84.60
2023-05-19T00:08:01.283Z,85.00
2023-05-19T00:10:32.237Z,85.30
2023-05-19T00:12:59.597Z,85.60
2023-05-19T00:15:26.909Z,85.90
2023-05-19T00:17:55.551Z,86.10
2023-05-19T00:20:22.990Z,86.40
2023-05-19T00:22:51.149Z,86.60
2023-05-19T00:25:18.055Z,86.90
2023-05-19T00:27:44.952Z,87.20
2023-05-19T00:30:12.115Z,87.50
2023-05-19T00:32:39.072Z,87.70
2023-05-19T00:35:06.456Z,88.10
2023-05-19T00:37:33.353Z,88.30
2023-05-19T00:40:00.314Z,88.60
2023-05-19T00:42:27.318Z,88.90
2023-05-19T00:44:54.316Z,89.20
2023-05-19T00:47:21.306Z,89.50
2023-05-19T00:49:48.136Z,89.80
2023-05-19T00:52:15.150Z,90.00
2023-05-19T00:54:42.517Z,90.10
2023-05-19T00:57:09.658Z,90.20
2023-05-19T00:59:36.861Z,90.30
2023-05-19T01:02:03.932Z,90.40
2023-05-19T01:04:35.076Z,90.50
2023-05-19T01:07:02.079Z,90.60
2023-05-19T01:09:29.176Z,90.70
2023-05-19T01:11:56.210Z,90.80
2023-05-19T01:14:23.179Z,91.00
2023-05-19T01:17:05.624Z,91.10
2023-05-19T01:19:47.359Z,91.30
2023-05-19T01:22:36.542Z,91.50
2023-05-19T01:25:17.710Z,91.70
2023-05-19T01:27:56.326Z,91.80
2023-05-19T01:30:34.166Z,92.00
2023-05-19T01:33:03.819Z,92.20
2023-05-19T01:35:33.061Z,92.40
2023-05-19T01:38:01.974Z,92.60
2023-05-19T01:40:30.497Z,92.70
2023-05-19T01:42:59.938Z,92.90
2023-05-19T01:45:29.364Z,93.10
2023-05-19T01:47:59.113Z,93.30
2023-05-19T01:50:26.762Z,93.50
2023-05-19T01:52:53.756Z,93.60
2023-05-19T01:55:22.927Z,93.90
2023-05-19T01:58:02.515Z,94.00
2023-05-19T02:00:35.473Z,94.20
2023-05-19T02:03:11.337Z,94.40
2023-05-19T02:05:57.297Z,94.50
2023-05-19T02:08:43.587Z,94.70
2023-05-19T02:11:38.244Z,94.80
2023-05-19T02:14:13.856Z,95.00
2023-05-19T02:16:46.046Z,95.10
2023-05-19T02:19:28.357Z,95.30
2023-05-19T02:21:55.418Z,95.50
2023-05-19T02:24:22.933Z,95.60
2023-05-19T02:26:51.867Z,95.70
2023-05-19T02:29:21.907Z,95.90
2023-05-19T02:31:48.863Z,96.10
2023-05-19T02:34:15.959Z,96.30
2023-05-19T02:36:43.561Z,96.40
2023-05-19T02:39:11.454Z,96.50
2023-05-19T02:41:38.797Z,96.70
2023-05-19T02:44:06.089Z,96.90
2023-05-19T02:46:33.378Z,97.00
2023-05-19T02:49:00.573Z,97.20
2023-05-19T02:51:27.504Z,97.40
2023-05-19T02:53:54.268Z,97.50
2023-05-19T02:56:21.765Z,97.70
2023-05-19T02:58:48.637Z,97.80
2023-05-19T03:01:15.780Z,98.00
2023-05-19T03:03:42.664Z,98.20
2023-05-19T03:06:09.601Z,98.30
2023-05-19T03:08:36.646Z,98.50
2023-05-19T03:11:03.766Z,98.60
2023-05-19T03:13:30.666Z,98.70
2023-05-19T03:15:59.234Z,98.90
2023-05-19T03:18:26.864Z,99.00
2023-05-19T03:20:54.127Z,99.20
2023-05-19T03:23:22.384Z,99.30
2023-05-19T03:25:49.257Z,99.40
2023-05-19T03:28:17.217Z,99.50
2023-05-19T03:30:44.218Z,99.60
2023-05-19T03:33:11.486Z,99.70
2023-05-19T03:35:38.882Z,99.80
2023-05-19T03:38:06.058Z,99.90
2023-05-19T03:40:33.332Z,99.90
2023-05-19T03:43:01.172Z,99.90
2023-05-19T03:45:28.618Z,99.90
2023-05-19T03:47:55.662Z,99.90
2023-05-19T03:50:23.073Z,99.90
2023-05-19T03:52:50.035Z,99.90
2023-05-19T03:55:17.102Z,99.90
2023-05-19T03:57:44.434Z,99.90
2023-05-19T04:00:12.385Z,99.90
2023-05-19T04:02:39.571Z,99.90
2023-05-19T04:05:07.186Z,99.90
2023-05-19T04:07:34.042Z,99.90
2023-05-19T04:10:00.952Z,99.90
2023-05-19T04:12:28.180Z,99.90
2023-05-19T04:14:54.992Z,99.90
2023-05-19T04:17:23.712Z,99.90
2023-05-19T04:19:51.083Z,99.90
2023-05-19T04:22:17.889Z,99.90
2023-05-19T04:24:46.033Z,99.90
2023-05-19T04:27:12.937Z,99.90
2023-05-19T04:29:40.853Z,99.90
2023-05-19T04:32:08.244Z,99.90
2023-05-19T04:34:35.703Z,99.90
2023-05-19T04:37:02.966Z,99.90
2023-05-19T04:39:29.982Z,99.90
2023-05-19T04:41:57.015Z,99.90
2023-05-19T04:44:24.053Z,99.90
2023-05-19T04:46:54.642Z,99.90
2023-05-19T04:49:21.597Z,99.90
2023-05-19T04:51:50.567Z,99.90
2023-05-19T04:54:18.491Z,99.90
2023-05-19T04:56:45.877Z,99.90
2023-05-19T04:59:12.768Z,99.90
2023-05-19T05:01:40.959Z,99.90
2023-05-19T05:04:07.883Z,99.90
2023-05-19T05:06:34.814Z,99.90
2023-05-19T05:09:03.573Z,99.90
2023-05-19T05:11:30.820Z,99.90
2023-05-19T05:14:00.713Z,99.90
2023-05-19T05:16:27.848Z,99.90
2023-05-19T05:18:55.014Z,99.90
2023-05-19T05:21:23.184Z,99.90
2023-05-19T05:23:52.018Z,99.90
2023-05-19T05:26:21.427Z,99.90
2023-05-19T05:28:48.374Z,99.90
2023-05-19T05:31:15.858Z,99.90
2023-05-19T05:33:43.636Z,99.90
2023-05-19T05:36:10.558Z,99.80
2023-05-19T05:38:37.499Z,99.30
2023-05-19T05:41:04.509Z,99.00
2023-05-19T05:43:31.408Z,98.40
2023-05-19T05:45:58.249Z,97.60
2023-05-19T05:48:25.436Z,96.80
2023-05-19T05:50:53.340Z,96.00
2023-05-19T05:53:21.444Z,95.10
2023-05-19T05:55:49.337Z,94.10
2023-05-19T05:58:17.152Z,92.90
2023-05-19T06:00:44.080Z,91.80
2023-05-19T06:03:11.532Z,90.60
2023-05-19T06:05:39.318Z,89.30
2023-05-19T06:08:06.378Z,87.70
2023-05-19T06:10:35.674Z,85.70
2023-05-19T06:13:02.802Z,84.10
2023-05-19T06:15:37.092Z,83.40
2023-05-19T06:18:04.022Z,83.00
2023-05-19T06:20:31.288Z,82.00
2023-05-19T06:22:58.574Z,80.60
2023-05-19T06:25:25.870Z,79.80
2023-05-19T06:27:52.855Z,78.40
2023-05-19T06:30:19.729Z,76.80
2023-05-19T06:32:47.006Z,74.80
2023-05-19T06:35:13.927Z,73.20
2023-05-19T06:37:40.708Z,71.90
2023-05-19T06:40:08.342Z,71.10
2023-05-19T06:42:35.144Z,70.40
2023-05-19T06:45:02.213Z,69.70
2023-05-19T06:47:29.176Z,68.70
2023-05-19T06:49:57.072Z,68.00
2023-05-19T06:52:24.567Z,67.20
2023-05-19T06:54:51.748Z,65.90
2023-05-19T06:57:18.602Z,64.60
2023-05-19T06:59:46.723Z,63.20
2023-05-19T07:02:13.809Z,61.50
2023-05-19T07:04:41.145Z,60.40
2023-05-19T07:07:08.214Z,59.40
2023-05-19T07:09:35.288Z,57.80
2023-05-19T07:12:02.116Z,57.00
2023-05-19T07:14:29.018Z,56.20
2023-05-19T07:16:55.961Z,55.90
2023-05-19T07:19:24.172Z,55.50
2023-05-19T07:21:51.377Z,55.50
2023-05-19T07:24:18.307Z,56.20
2023-05-19T07:26:45.225Z,56.40
2023-05-19T07:29:12.059Z,56.70
2023-05-19T07:31:39.231Z,56.90
2023-05-19T07:34:06.307Z,56.30
2023-05-19T07:36:34.247Z,56.20
2023-05-19T07:39:01.221Z,55.60
2023-05-19T07:41:28.304Z,54.10
2023-05-19T07:43:55.143Z,53.40
2023-05-19T07:46:22.464Z,52.90
2023-05-19T07:48:49.474Z,50.80
2023-05-19T07:51:25.240Z,48.70
2023-05-19T07:53:52.948Z,47.10
2023-05-19T07:56:19.842Z,47.60
2023-05-19T07:58:46.772Z,46.90
2023-05-19T08:01:13.895Z,45.80
2023-05-19T08:03:41.190Z,45.80
2023-05-19T08:06:08.424Z,44.50
2023-05-19T08:08:35.365Z,44.00
2023-05-19T08:11:04.316Z,44.40
2023-05-19T08:13:31.570Z,42.20
2023-05-19T08:16:01.478Z,42.40
2023-05-19T08:18:28.798Z,40.80
2023-05-19T08:20:57.014Z,40.70
2023-05-19T08:23:23.889Z,39.60
2023-05-19T08:25:51.020Z,38.50
2023-05-19T08:28:17.980Z,37.10
2023-05-19T08:30:47.928Z,37.00
2023-05-19T08:33:14.984Z,37.00
2023-05-19T08:35:43.086Z,36.40
2023-05-19T08:38:09.990Z,35.10
2023-05-19T08:40:38.182Z,35.10
2023-05-19T08:43:05.163Z,33.90
2023-05-19T08:48:03.222Z,33.40
2023-05-19T08:50:31.532Z,34.00
2023-05-19T08:53:32.341Z,33.60
2023-05-19T08:56:10.555Z,33.90
2023-05-19T08:58:43.716Z,35.40
2023-05-19T09:01:17.013Z,34.10
2023-05-19T09:03:45.377Z,34.30
2023-05-19T09:06:13.134Z,35.70
2023-05-19T09:08:41.371Z,36.10
2023-05-19T09:11:10.220Z,35.20
2023-05-19T09:13:37.241Z,32.90
2023-05-19T09:16:04.615Z,33.30
2023-05-19T09:18:31.855Z,33.40
2023-05-19T09:21:02.612Z,32.90
2023-05-19T09:23:33.516Z,32.50
2023-05-19T09:26:07.430Z,31.30
2023-05-19T09:28:36.589Z,31.50
2023-05-19T09:31:08.781Z,31.10
2023-05-19T09:33:41.048Z,30.10
2023-05-19T09:36:11.020Z,28.90
2023-05-19T09:38:39.351Z,28.70
2023-05-19T09:41:07.715Z,28.90
2023-05-19T09:43:35.482Z,28.50
2023-05-19T09:46:14.571Z,28.70
2023-05-19T09:48:44.875Z,29.20
2023-05-19T09:51:12.490Z,29.30
2023-05-19T09:53:39.881Z,28.30
2023-05-19T09:56:10.308Z,29.60
2023-05-19T09:58:37.874Z,29.00
2023-05-19T10:01:05.582Z,28.90
2023-05-19T10:03:33.936Z,29.20
2023-05-19T10:06:05.702Z,28.40
2023-05-19T10:08:34.487Z,28.00
2023-05-19T10:11:02.577Z,27.70
2023-05-19T10:13:31.171Z,27.80
2023-05-19T10:16:00.270Z,27.40
2023-05-19T10:18:30.832Z,26.80
2023-05-19T10:20:59.107Z,26.90
2023-05-19T10:23:26.865Z,27.30
2023-05-19T10:25:58.533Z,27.10
2023-05-19T10:28:34.784Z,27.60
2023-05-19T10:31:05.174Z,27.00
2023-05-19T10:33:39.168Z,27.10
2023-05-19T10:36:49.410Z,27.50
2023-05-19T10:39:28.198Z,26.50
2023-05-19T10:42:03.513Z,26.40
2023-05-19T10:45:05.180Z,26.70
2023-05-19T10:47:40.552Z,27.00
2023-05-19T10:50:08.667Z,26.10
2023-05-19T10:52:40.200Z,25.90
2023-05-19T10:55:18.054Z,26.20
2023-05-19T10:58:12.954Z,26.30
2023-05-19T11:00:41.391Z,26.90
2023-05-19T11:03:16.732Z,27.00
2023-05-19T11:05:46.784Z,27.10
2023-05-19T11:10:55.742Z,26.50
2023-05-19T11:13:23.213Z,26.60
2023-05-19T11:15:50.346Z,27.10
2023-05-19T11:18:32.683Z,27.40
2023-05-19T11:21:02.742Z,27.10
2023-05-19T11:23:35.536Z,27.10
2023-05-19T11:26:02.996Z,26.90
2023-05-19T11:28:34.321Z,27.00
2023-05-19T11:31:02.694Z,27.10
2023-05-19T11:33:32.684Z,27.10
2023-05-19T11:35:59.921Z,26.30
2023-05-19T11:38:28.702Z,26.30
2023-05-19T11:41:01.975Z,26.90
2023-05-19T11:43:29.040Z,26.70
2023-05-19T11:45:56.340Z,27.00
2023-05-19T11:48:24.792Z,26.00
2023-05-19T11:50:52.629Z,26.40
2023-05-19T11:53:21.375Z,26.10
2023-05-19T12:04:10.667Z,27.60
2023-05-19T12:06:37.860Z,26.00
2023-05-19T12:17:21.444Z,26.60
2023-05-19T12:19:49.561Z,26.60
2023-05-19T12:22:17.913Z,26.40
2023-05-19T12:24:46.080Z,26.30
2023-05-19T12:27:28.852Z,26.80
2023-05-19T12:30:00.066Z,27.00
2023-05-19T12:32:28.813Z,27.00
2023-05-19T12:37:33.300Z,27.10
2023-05-19T12:40:01.840Z,27.60
2023-05-19T12:42:32.531Z,28.30
2023-05-19T12:45:03.334Z,28.70
2023-05-19T12:47:37.027Z,28.30
2023-05-19T12:50:10.227Z,28.70
2023-05-19T12:52:45.924Z,29.50
2023-05-19T12:55:14.444Z,29.40
2023-05-19T12:57:44.437Z,29.50
2023-05-19T13:00:21.533Z,30.40
2023-05-19T13:03:01.529Z,29.40
2023-05-19T13:05:30.803Z,30.00
2023-05-19T13:08:18.510Z,30.40
2023-05-19T13:10:46.400Z,29.70
2023-05-19T13:13:13.921Z,29.30
2023-05-19T13:15:42.429Z,29.10
2023-05-19T13:18:10.985Z,29.50
2023-05-19T13:20:40.647Z,30.30
2023-05-19T13:23:07.929Z,30.50
2023-05-19T13:45:03.058Z,28.70
2023-05-19T13:47:30.635Z,30.20
2023-05-19T13:49:57.815Z,29.40
2023-05-19T13:52:28.148Z,29.80
2023-05-19T13:54:58.145Z,30.20
2023-05-19T13:57:26.420Z,30.50
2023-05-19T14:00:02.649Z,30.90
2023-05-19T14:02:33.110Z,31.20
2023-05-19T14:05:00.761Z,31.40
2023-05-19T14:07:28.353Z,31.50
2023-05-19T14:09:55.441Z,31.10
2023-05-19T14:12:25.577Z,31.00
2023-05-19T14:20:32.455Z,33.00
2023-05-19T14:22:59.498Z,33.50
2023-05-19T14:39:03.212Z,35.20
2023-05-19T14:41:30.060Z,34.00
2023-05-19T14:43:57.220Z,34.30
2023-05-19T14:46:24.549Z,35.50
2023-05-19T14:48:52.486Z,35.60
2023-05-19T14:51:19.293Z,34.70
2023-05-19T14:53:50.356Z,34.60
2023-05-19T14:56:17.381Z,34.70
2023-05-19T14:58:50.569Z,35.00
2023-05-19T15:01:17.441Z,34.50
2023-05-19T15:03:44.377Z,35.20
2023-05-19T15:06:11.320Z,34.80
2023-05-19T15:08:48.027Z,35.60
2023-05-19T15:11:15.277Z,35.60
2023-05-19T15:13:42.334Z,35.50
2023-05-19T15:18:41.826Z,36.10
2023-05-19T15:21:08.645Z,35.90
2023-05-19T15:23:36.824Z,35.20
2023-05-19T15:26:03.772Z,35.60
2023-05-19T15:28:30.843Z,35.50
2023-05-19T15:30:57.722Z,35.90
2023-05-19T15:33:24.599Z,36.30
2023-05-19T15:35:52.604Z,36.30
2023-05-19T15:38:20.014Z,37.10
2023-05-19T15:40:47.213Z,36.90
2023-05-19T15:43:14.713Z,37.30
2023-05-19T15:45:41.568Z,37.20
2023-05-19T15:48:08.625Z,37.20
2023-05-19T15:50:36.090Z,37.90
2023-05-19T15:53:03.360Z,37.80
2023-05-19T15:55:30.602Z,37.90
2023-05-19T15:57:57.452Z,38.40
2023-05-19T16:00:24.351Z,37.90
2023-05-19T16:02:51.281Z,37.90
2023-05-19T16:05:18.573Z,38.00
2023-05-19T16:07:45.770Z,38.10
2023-05-19T16:10:12.713Z,38.40
2023-05-19T16:12:39.771Z,38.40
2023-05-19T16:15:07.152Z,38.10
2023-05-19T16:17:34.899Z,38.50
2023-05-19T16:20:07.924Z,38.50
2023-05-19T16:22:35.738Z,38.00
2023-05-19T16:25:02.865Z,37.90
2023-05-19T16:27:30.873Z,38.40
2023-05-19T16:29:59.189Z,38.30
2023-05-19T16:32:26.254Z,38.50
2023-05-19T16:34:53.537Z,38.70
2023-05-19T16:42:36.767Z,39.10
2023-05-19T16:45:04.265Z,39.90
2023-05-19T16:47:33.898Z,39.30
2023-05-19T16:50:00.994Z,39.40
2023-05-19T16:52:28.497Z,39.50
2023-05-19T16:54:58.319Z,39.30
2023-05-19T16:57:25.443Z,39.10
2023-05-19T16:59:52.372Z,39.30
2023-05-19T17:02:19.566Z,39.00
2023-05-19T17:05:05.609Z,39.40
2023-05-19T17:07:54.458Z,39.80
2023-05-19T17:10:25.959Z,40.10
2023-05-19T17:12:53.054Z,41.00
2023-05-19T17:15:20.051Z,41.00
2023-05-19T17:18:07.435Z,40.60
2023-05-19T17:20:36.075Z,40.00
2023-05-19T17:23:04.759Z,39.90
2023-05-19T17:25:35.185Z,39.90
2023-05-19T17:28:05.203Z,40.00
2023-05-19T17:30:52.582Z,40.40
2023-05-19T17:33:25.661Z,40.70
2023-05-19T17:35:53.019Z,41.30
2023-05-19T17:38:19.851Z,41.40
2023-05-19T17:40:47.302Z,41.70
2023-05-19T17:43:14.420Z,42.10
2023-05-19T17:45:41.299Z,42.40
2023-05-19T18:08:50.573Z,44.20
2023-05-19T18:11:19.040Z,44.60
2023-05-19T18:33:53.719Z,46.20
2023-05-19T18:36:29.248Z,46.00
2023-05-19T18:38:58.269Z,46.20
2023-05-19T18:41:28.410Z,46.60
2023-05-19T18:43:55.443Z,46.90
2023-05-19T18:46:28.246Z,46.70
2023-05-19T18:48:55.556Z,46.50
2023-05-19T18:51:54.961Z,46.70
2023-05-19T18:55:04.034Z,47.10
2023-05-19T18:57:31.118Z,47.30
2023-05-19T18:59:58.382Z,46.60
2023-05-19T19:02:25.679Z,47.10
2023-05-19T19:04:54.242Z,47.70
2023-05-19T19:10:25.562Z,48.30
2023-05-19T19:12:52.434Z,48.90
2023-05-19T19:15:28.425Z,48.90
2023-05-19T19:17:56.887Z,49.10
2023-05-19T19:23:01.898Z,49.60
2023-05-19T19:25:29.438Z,49.80
2023-05-19T19:27:56.296Z,50.10
2023-05-19T19:30:23.261Z,50.30
2023-05-19T19:32:50.283Z,50.50
2023-05-19T19:35:21.196Z,51.00
2023-05-19T19:37:49.843Z,51.50
2023-05-19T19:40:17.748Z,51.60
2023-05-19T19:42:47.702Z,51.60
2023-05-19T19:45:15.875Z,52.00
2023-05-19T19:47:43.003Z,51.90
2023-05-19T19:50:11.664Z,52.10
2023-05-19T19:52:41.796Z,52.10
2023-05-19T19:55:09.754Z,52.40
2023-05-19T19:57:36.994Z,52.50
2023-05-19T20:00:08.004Z,52.60
2023-05-19T20:02:41.060Z,53.20
2023-05-19T20:05:12.821Z,53.50
2023-05-19T20:07:39.698Z,54.30
2023-05-19T20:10:06.834Z,54.90
2023-05-19T20:12:33.758Z,55.70
2023-05-19T20:15:03.159Z,56.80
2023-05-19T20:17:30.113Z,57.70
2023-05-19T20:19:57.948Z,58.60
2023-05-19T20:22:26.251Z,59.70
2023-05-19T20:24:53.204Z,60.70
2023-05-19T20:27:20.108Z,61.60
2023-05-19T20:29:48.455Z,62.50
2023-05-19T20:32:15.479Z,63.20
2023-05-19T20:34:45.666Z,63.80
2023-05-19T20:37:14.222Z,64.70
2023-05-19T20:39:41.369Z,64.80
2023-05-19T20:42:08.642Z,65.30
2023-05-19T20:44:36.042Z,65.80
2023-05-19T20:47:04.275Z,66.20
2023-05-19T20:49:31.323Z,66.60
2023-05-19T20:51:58.242Z,66.90
2023-05-19T20:54:25.325Z,67.30
2023-05-19T20:56:52.232Z,67.60
2023-05-19T20:59:19.085Z,67.90
2023-05-19T21:01:46.314Z,68.30
2023-05-19T21:04:13.745Z,68.70
2023-05-19T21:06:40.768Z,69.10
2023-05-19T21:09:07.728Z,69.30
2023-05-19T21:11:34.830Z,69.60
2023-05-19T21:14:04.934Z,69.70
2023-05-19T21:16:32.335Z,69.90
2023-05-19T21:18:59.721Z,69.90
2023-05-19T21:21:26.744Z,69.90
2023-05-19T21:23:53.916Z,70.00
2023-05-19T21:26:22.084Z,70.00
2023-05-19T21:28:49.153Z,70.10
2023-05-19T21:31:16.144Z,70.00
2023-05-19T21:33:43.320Z,70.00
2023-05-19T21:36:10.221Z,70.00
2023-05-19T21:38:37.115Z,70.00
2023-05-19T21:41:04.149Z,70.00
2023-05-19T21:43:31.116Z,70.60
2023-05-19T21:46:01.253Z,70.10
2023-05-19T21:48:28.279Z,70.20
2023-05-19T21:50:55.646Z,70.10
2023-05-19T21:53:22.818Z,70.30
2023-05-19T21:55:50.293Z,70.60
2023-05-19T21:58:17.432Z,70.60
2023-05-19T22:00:52.731Z,70.60
2023-05-19T22:03:19.835Z,70.80
2023-05-19T22:05:52.160Z,70.60
2023-05-19T22:08:20.730Z,70.70
2023-05-19T22:10:51.510Z,70.60
2023-05-19T22:13:19.471Z,70.70
2023-05-19T22:15:46.747Z,70.60
2023-05-19T22:18:13.733Z,70.60
2023-05-19T22:20:40.731Z,70.80
2023-05-19T22:23:07.811Z,70.90
2023-05-19T22:25:35.948Z,70.90
2023-05-19T22:28:03.034Z,70.80
2023-05-19T22:30:30.260Z,71.00
2023-05-19T22:32:57.100Z,70.90
2023-05-19T22:35:24.394Z,70.80
2023-05-19T22:37:51.735Z,71.30
2023-05-19T22:40:19.030Z,70.60
2023-05-19T22:42:46.000Z,70.50
2023-05-19T22:45:13.043Z,70.50
2023-05-19T22:47:40.072Z,70.50
2023-05-19T22:50:10.073Z,70.40
2023-05-19T22:52:37.508Z,70.40
2023-05-19T22:55:05.192Z,70.50
2023-05-19T22:57:34.703Z,70.60
2023-05-19T23:00:01.610Z,70.70
2023-05-19T23:02:28.715Z,70.60
2023-05-19T23:04:57.725Z,70.80
2023-05-19T23:07:24.844Z,70.90
2023-05-19T23:09:51.950Z,71.10
2023-05-19T23:12:18.955Z,71.20
2023-05-19T23:14:46.079Z,71.20
2023-05-19T23:17:14.083Z,71.20
2023-05-19T23:19:41.125Z,71.40
2023-05-19T23:22:08.065Z,71.50
2023-05-19T23:24:35.046Z,71.70
2023-05-19T23:27:01.909Z,72.00
2023-05-19T23:29:28.983Z,72.00
2023-05-19T23:31:55.958Z,72.20
2023-05-19T23:34:22.797Z,72.40
2023-05-19T23:36:49.756Z,72.70
2023-05-19T23:39:16.657Z,72.80
2023-05-19T23:41:43.462Z,73.00
2023-05-19T23:44:10.548Z,73.20
2023-05-19T23:46:37.350Z,73.40
2023-05-19T23:49:04.224Z,73.50
2023-05-19T23:51:32.027Z,73.70
2023-05-19T23:53:59.055Z,73.80
2023-05-19T23:56:26.105Z,73.90
2023-05-19T23:58:53.153Z,74.10
